createdAt,value
2023-02-07T00:00:51.741Z,-9.599999
2023-02-07T00:01:51.916Z,-9.599999
2023-02-07T00:02:52.086Z,-9.84
2023-02-07T00:03:52.218Z,-9.92
2023-02-07T00:04:52.345Z,-10
2023-02-07T00:05:52.500Z,-10
2023-02-07T00:06:52.601Z,-9.92
2023-02-07T00:07:52.752Z,-9.84
2023-02-07T00:08:52.884Z,-9.679999
2023-02-07T00:09:53.003Z,-9.679999
2023-02-07T00:10:53.150Z,-9.36
2023-02-07T00:11:53.304Z,-9.52
2023-02-07T00:12:53.458Z,-9.679999
2023-02-07T00:13:53.615Z,-9.52
2023-02-07T00:14:53.772Z,-9.84
2023-02-07T00:15:54.019Z,-10.08
2023-02-07T00:16:54.092Z,-10.4
2023-02-07T00:17:54.211Z,-10.08
2023-02-07T00:18:54.385Z,-9.92
2023-02-07T00:19:54.468Z,-10.08
2023-02-07T00:20:54.643Z,-9.92
2023-02-07T00:21:54.775Z,-10
2023-02-07T00:22:54.882Z,-10
2023-02-07T00:23:55.030Z,-10
2023-02-07T00:24:55.197Z,-9.84
2023-02-07T00:25:55.343Z,-9.92
2023-02-07T00:26:55.483Z,-9.92
2023-02-07T00:27:55.724Z,-9.84
2023-02-07T00:28:55.738Z,-9.679999
2023-02-07T00:29:55.888Z,-9.599999
2023-02-07T00:30:56.121Z,-9.92
2023-02-07T00:31:56.135Z,-9.84
2023-02-07T00:32:56.284Z,-9.84
2023-02-07T00:33:56.514Z,-9.84
2023-02-07T00:34:56.667Z,-9.679999
2023-02-07T00:35:56.802Z,-9.599999
2023-02-07T00:36:57.068Z,-9.52
2023-02-07T00:37:57.100Z,-9.599999
2023-02-07T00:38:57.254Z,-9.52
2023-02-07T00:39:57.416Z,-9.92
2023-02-07T00:40:57.552Z,-10.32
2023-02-07T00:41:57.714Z,-9.92
2023-02-07T00:42:57.878Z,-9.679999
2023-02-07T00:43:58.022Z,-9.28
2023-02-07T00:44:58.370Z,-10.08
2023-02-07T00:45:58.643Z,-10
2023-02-07T00:46:58.451Z,-10.4
2023-02-07T00:47:58.561Z,-10.8
2023-02-07T00:48:58.665Z,-11.04
2023-02-07T00:49:58.828Z,-10.48
2023-02-07T00:50:58.972Z,-10.48
2023-02-07T00:51:59.141Z,-10.08
2023-02-07T00:52:59.271Z,-9.84
2023-02-07T00:53:59.375Z,-9.92
2023-02-07T00:54:59.489Z,-9.679999
2023-02-07T00:55:59.685Z,-9.679999
2023-02-07T00:56:59.817Z,-9.679999
2023-02-07T00:57:59.997Z,-9.84
2023-02-07T00:59:00.168Z,-9.84
2023-02-07T01:00:00.272Z,-9.679999
2023-02-07T01:01:00.451Z,-9.599999
2023-02-07T01:02:00.530Z,-9.52
2023-02-07T01:03:00.678Z,-9.92
2023-02-07T01:04:00.831Z,-10
2023-02-07T01:05:01.061Z,-10
2023-02-07T01:06:01.138Z,-10.08
2023-02-07T01:07:01.803Z,-10.24
2023-02-07T01:08:01.393Z,-10.32
2023-02-07T01:09:01.554Z,-10.4
2023-02-07T01:10:01.701Z,-9.92
2023-02-07T01:11:01.804Z,-10.08
2023-02-07T01:12:01.947Z,-10.24
2023-02-07T01:13:02.125Z,-10.32
2023-02-07T01:14:02.251Z,-10.4
2023-02-07T01:15:02.424Z,-10.24
2023-02-07T01:16:02.642Z,-10.24
2023-02-07T01:17:02.650Z,-10.4
2023-02-07T01:18:02.807Z,-10.32
2023-02-07T01:19:02.961Z,-10.32
2023-02-07T01:20:03.058Z,-10.32
2023-02-07T01:21:03.216Z,-10.4
2023-02-07T01:22:03.365Z,-10.32
2023-02-07T01:23:03.471Z,-10.24
2023-02-07T01:24:03.619Z,-10.08
2023-02-07T01:25:03.772Z,-10.24
2023-02-07T01:26:03.921Z,-10.32
2023-02-07T01:27:04.084Z,-10.08
2023-02-07T01:28:04.250Z,-10
2023-02-07T01:29:04.382Z,-9.92
2023-02-07T01:30:04.539Z,-9.679999
2023-02-07T01:31:04.752Z,-9.84
2023-02-07T01:32:04.728Z,-9.84
2023-02-07T01:33:04.889Z,-9.84
2023-02-07T01:34:05.715Z,-9.92
2023-02-07T01:35:05.181Z,-10
2023-02-07T01:36:05.334Z,-10
2023-02-07T01:37:05.491Z,-10
2023-02-07T01:38:05.650Z,-9.92
2023-02-07T01:39:05.792Z,-10
2023-02-07T01:40:05.935Z,-10
2023-02-07T01:41:06.043Z,-10.08
2023-02-07T01:42:06.185Z,-10.08
2023-02-07T01:43:06.343Z,-9.679999
2023-02-07T01:44:06.485Z,-9.679999
2023-02-07T01:45:06.655Z,-9.599999
2023-02-07T01:46:06.794Z,-9.36
2023-02-07T01:47:06.896Z,-9.36
2023-02-07T01:48:07.010Z,-9.2
2023-02-07T01:49:07.151Z,-9.2
2023-02-07T01:50:07.305Z,-9.12
2023-02-07T01:51:07.452Z,-9.52
2023-02-07T01:52:07.604Z,-9.599999
2023-02-07T01:53:07.755Z,-9.84
2023-02-07T01:54:07.919Z,-9.84
2023-02-07T01:55:08.058Z,-9.84
2023-02-07T01:56:08.217Z,-10
2023-02-07T01:57:08.366Z,-10
2023-02-07T01:58:08.509Z,-9.92
2023-02-07T01:59:08.663Z,-9.84
2023-02-07T02:00:08.816Z,-9.84
2023-02-07T02:01:09.037Z,-9.84
2023-02-07T02:02:09.070Z,-9.52
2023-02-07T02:03:09.219Z,-9.2
2023-02-07T02:04:09.375Z,-9.12
2023-02-07T02:05:09.542Z,-9.28
2023-02-07T02:06:09.670Z,-9.04
2023-02-07T02:07:09.832Z,-9.04
2023-02-07T02:08:09.972Z,-8.88
2023-02-07T02:09:10.130Z,-9.12
2023-02-07T02:10:10.289Z,-8.72
2023-02-07T02:11:10.431Z,-8.8
2023-02-07T02:12:10.582Z,-8.72
2023-02-07T02:13:10.731Z,-8.72
2023-02-07T02:14:10.883Z,-8.8
2023-02-07T02:15:11.060Z,-8.8
2023-02-07T02:16:11.238Z,-8.639999
2023-02-07T02:17:11.300Z,-8.639999
2023-02-07T02:18:11.453Z,-9.12
2023-02-07T02:19:11.594Z,-9.52
2023-02-07T02:20:11.761Z,-9.679999
2023-02-07T02:21:11.897Z,-9.679999
2023-02-07T02:22:12.015Z,-9.679999
2023-02-07T02:23:12.147Z,-10
2023-02-07T02:24:12.251Z,-9.52
2023-02-07T02:25:12.416Z,-10.08
2023-02-07T02:26:12.577Z,-10.48
2023-02-07T02:27:12.658Z,-10.08
2023-02-07T02:28:12.813Z,-9.92
2023-02-07T02:29:12.956Z,-9.599999
2023-02-07T02:30:13.132Z,-9.2
2023-02-07T02:31:13.295Z,-9.679999
2023-02-07T02:32:13.364Z,-9.599999
2023-02-07T02:33:13.515Z,-9.92
2023-02-07T02:34:13.617Z,-10.24
2023-02-07T02:35:13.778Z,-10
2023-02-07T02:36:13.917Z,-9.679999
2023-02-07T02:37:14.071Z,-9.36
2023-02-07T02:38:14.232Z,-10
2023-02-07T02:39:14.373Z,-9.92
2023-02-07T02:40:14.477Z,-9.679999
2023-02-07T02:41:14.625Z,-9.84
2023-02-07T02:42:14.777Z,-9.52
2023-02-07T02:43:14.929Z,-9.52
2023-02-07T02:44:15.512Z,-9.679999
2023-02-07T02:45:15.761Z,-10.24
2023-02-07T02:46:15.378Z,-10.32
2023-02-07T02:47:15.443Z,-10.32
2023-02-07T02:48:15.586Z,-10.24
2023-02-07T02:49:15.736Z,-9.52
2023-02-07T02:50:15.843Z,-10
2023-02-07T02:51:15.955Z,-9.92
2023-02-07T02:52:16.048Z,-9.92
2023-02-07T02:53:16.199Z,-9.92
2023-02-07T02:54:16.351Z,-10.4
2023-02-07T02:55:16.502Z,-9.92
2023-02-07T02:56:16.652Z,-9.599999
2023-02-07T02:57:16.761Z,-10.32
2023-02-07T02:58:16.902Z,-10.48
2023-02-07T02:59:17.068Z,-10.719999
2023-02-07T03:00:17.202Z,-10.719999
2023-02-07T03:01:17.397Z,-10.48
2023-02-07T03:02:17.509Z,-10.639999
2023-02-07T03:03:17.633Z,-10.24
2023-02-07T03:04:17.759Z,-10.639999
2023-02-07T03:05:18.016Z,-10.639999
2023-02-07T03:06:18.016Z,-10.719999
2023-02-07T03:07:18.167Z,-11.04
2023-02-07T03:08:18.319Z,-11.2
2023-02-07T03:09:18.475Z,-11.12
2023-02-07T03:10:18.629Z,-11.28
2023-02-07T03:11:18.776Z,-10.8
2023-02-07T03:12:18.876Z,-10.88
2023-02-07T03:13:19.028Z,-11.2
2023-02-07T03:14:19.184Z,-11.2
2023-02-07T03:15:19.335Z,-11.12
2023-02-07T03:16:19.845Z,-11.2
2023-02-07T03:17:19.953Z,-11.679999
2023-02-07T03:18:19.785Z,-10.88
2023-02-07T03:19:20.235Z,-10.719999
2023-02-07T03:20:20.042Z,-10.88
2023-02-07T03:21:20.137Z,-10.719999
2023-02-07T03:22:20.295Z,-10.639999
2023-02-07T03:23:20.439Z,-10.88
2023-02-07T03:24:20.587Z,-10.8
2023-02-07T03:25:20.701Z,-11.04
2023-02-07T03:26:20.847Z,-10.48
2023-02-07T03:27:21.012Z,-10.639999
2023-02-07T03:28:21.167Z,-10.4
2023-02-07T03:29:21.265Z,-11.12
2023-02-07T03:30:21.507Z,-10.24
2023-02-07T03:31:21.480Z,-11.04
2023-02-07T03:32:21.562Z,-11.2
2023-02-07T03:33:21.706Z,-11.04
2023-02-07T03:34:21.867Z,-10.639999
2023-02-07T03:35:22.018Z,-10.08
2023-02-07T03:36:22.846Z,-11.12
2023-02-07T03:37:22.646Z,-11.12
2023-02-07T03:38:22.799Z,-10.8
2023-02-07T03:39:22.964Z,-10.8
2023-02-07T03:40:23.107Z,-10.4
2023-02-07T03:41:23.257Z,-10.719999
2023-02-07T03:42:23.066Z,-11.12
2023-02-07T03:43:23.225Z,-11.28
2023-02-07T03:44:24.020Z,-11.2
2023-02-07T03:45:23.474Z,-11.2
2023-02-07T03:46:24.059Z,-11.2
2023-02-07T03:47:23.770Z,-11.28
2023-02-07T03:48:23.924Z,-11.28
2023-02-07T03:49:24.024Z,-11.12
2023-02-07T03:50:24.178Z,-10.4
2023-02-07T03:51:24.320Z,-10.719999
2023-02-07T03:52:24.822Z,-11.28
2023-02-07T03:53:24.969Z,-11.84
2023-02-07T03:54:25.076Z,-11.84
2023-02-07T03:55:25.242Z,-11.599999
2023-02-07T03:56:25.390Z,-10.719999
2023-02-07T03:57:25.545Z,-11.2
2023-02-07T03:58:25.717Z,-11.92
2023-02-07T03:59:25.756Z,-12
2023-02-07T04:00:26.096Z,-11.84
2023-02-07T04:01:26.198Z,-12.08
2023-02-07T04:02:26.341Z,-11.92
2023-02-07T04:03:26.506Z,-10.4
2023-02-07T04:04:26.550Z,-11.12
2023-02-07T04:05:26.701Z,-11.12
2023-02-07T04:06:26.855Z,-11.84
2023-02-07T04:07:27.003Z,-11.44
2023-02-07T04:08:27.168Z,-11.04
2023-02-07T04:09:27.307Z,-11.04
2023-02-07T04:10:27.686Z,-10.32
2023-02-07T04:11:27.608Z,-11.28
2023-02-07T04:12:27.758Z,-11.52
2023-02-07T04:13:27.527Z,-11.599999
2023-02-07T04:14:27.668Z,-10.88
2023-02-07T04:15:27.827Z,-11.04
2023-02-07T04:16:27.979Z,-11.2
2023-02-07T04:17:30.098Z,-11.04
2023-02-07T04:18:28.246Z,-11.44
2023-02-07T04:19:28.382Z,-11.2
2023-02-07T04:20:28.504Z,-11.28
2023-02-07T04:21:28.596Z,-11.52
2023-02-07T04:22:28.739Z,-11.28
2023-02-07T04:23:28.890Z,-11.28
2023-02-07T04:24:29.039Z,-11.2
2023-02-07T04:25:29.200Z,-11.44
2023-02-07T04:26:29.345Z,-11.04
2023-02-07T04:27:29.490Z,-11.2
2023-02-07T04:28:29.595Z,-11.12
2023-02-07T04:29:29.700Z,-11.28
2023-02-07T04:30:29.863Z,-11.28
2023-02-07T04:31:30.054Z,-11.52
2023-02-07T04:32:30.148Z,-11.28
2023-02-07T04:33:30.296Z,-11.2
2023-02-07T04:34:30.454Z,-10.719999
2023-02-07T04:35:30.603Z,-10.88
2023-02-07T04:36:30.761Z,-11.04
2023-02-07T04:37:30.918Z,-11.2
2023-02-07T04:38:31.060Z,-11.12
2023-02-07T04:39:31.159Z,-11.44
2023-02-07T04:40:31.309Z,-11.28
2023-02-07T04:41:31.457Z,-11.12
2023-02-07T04:42:31.617Z,-11.2
2023-02-07T04:43:31.731Z,-11.52
2023-02-07T04:44:31.865Z,-10.719999
2023-02-07T04:45:32.063Z,-11.28
2023-02-07T04:46:32.170Z,-11.04
2023-02-07T04:47:32.331Z,-11.44
2023-02-07T04:48:32.473Z,-11.2
2023-02-07T04:49:34.225Z,-11.52
2023-02-07T04:50:32.768Z,-11.599999
2023-02-07T04:51:32.975Z,-11.2
2023-02-07T04:52:33.080Z,-11.28
2023-02-07T04:53:33.233Z,-11.04
2023-02-07T04:54:33.377Z,-11.2
2023-02-07T04:55:33.520Z,-11.2
2023-02-07T04:56:36.073Z,-11.12
2023-02-07T04:57:33.786Z,-11.2
2023-02-07T04:58:33.941Z,-10.88
2023-02-07T04:59:34.074Z,-10.719999
2023-02-07T05:00:34.220Z,-10.719999
2023-02-07T05:01:34.384Z,-10.719999
2023-02-07T05:02:34.539Z,-11.12
2023-02-07T05:03:34.693Z,-11.2
2023-02-07T05:04:35.201Z,-11.28
2023-02-07T05:05:35.507Z,-11.2
2023-02-07T05:06:35.543Z,-11.2
2023-02-07T05:07:35.647Z,-10.88
2023-02-07T05:08:35.793Z,-10.719999
2023-02-07T05:09:35.939Z,-11.04
2023-02-07T05:10:35.704Z,-10.48
2023-02-07T05:11:35.863Z,-10
2023-02-07T05:12:35.967Z,-10.48
2023-02-07T05:13:36.100Z,-10.4
2023-02-07T05:14:36.254Z,-11.04
2023-02-07T05:15:36.818Z,-10.88
2023-02-07T05:16:36.606Z,-11.2
2023-02-07T05:17:36.704Z,-11.52
2023-02-07T05:18:36.876Z,-11.92
2023-02-07T05:19:37.005Z,-12.08
2023-02-07T05:20:37.110Z,-12.24
2023-02-07T05:21:37.258Z,-12.4
2023-02-07T05:22:37.418Z,-12.4
2023-02-07T05:23:37.568Z,-12.4
2023-02-07T05:24:37.711Z,-11.92
2023-02-07T05:25:38.074Z,-11.599999
2023-02-07T05:26:40.076Z,-11.599999
2023-02-07T05:27:38.030Z,-11.679999
2023-02-07T05:28:38.190Z,-11.679999
2023-02-07T05:29:38.343Z,-11.679999
2023-02-07T05:30:38.554Z,-11.28
2023-02-07T05:31:38.627Z,-11.28
2023-02-07T05:32:38.687Z,-11.52
2023-02-07T05:33:38.839Z,-11.84
2023-02-07T05:34:39.031Z,-11.679999
2023-02-07T05:35:39.420Z,-11.84
2023-02-07T05:36:39.290Z,-11.84
2023-02-07T05:37:39.445Z,-11.599999
2023-02-07T05:38:39.562Z,-11.52
2023-02-07T05:39:39.694Z,-11.04
2023-02-07T05:40:39.867Z,-11.04
2023-02-07T05:41:40.000Z,-11.2
2023-02-07T05:42:40.163Z,-11.2
2023-02-07T05:43:40.306Z,-11.28
2023-02-07T05:44:40.471Z,-10.8
2023-02-07T05:45:40.970Z,-11.28
2023-02-07T05:46:40.748Z,-11.28
2023-02-07T05:47:41.241Z,-11.599999
2023-02-07T05:48:41.018Z,-11.52
2023-02-07T05:49:41.156Z,-11.04
2023-02-07T05:50:41.311Z,-10.08
2023-02-07T05:51:41.473Z,-11.04
2023-02-07T05:52:41.616Z,-11.44
2023-02-07T05:53:41.766Z,-11.599999
2023-02-07T05:54:41.916Z,-11.52
2023-02-07T05:55:42.068Z,-11.28
2023-02-07T05:56:42.221Z,-11.44
2023-02-07T05:57:42.381Z,-11.44
2023-02-07T05:58:42.524Z,-11.52
2023-02-07T05:59:42.626Z,-11.679999
2023-02-07T06:00:42.761Z,-11.52
2023-02-07T06:01:42.924Z,-11.2
2023-02-07T06:02:43.134Z,-11.44
2023-02-07T06:03:43.252Z,-11.84
2023-02-07T06:04:43.379Z,-11.28
2023-02-07T06:05:43.543Z,-11.599999
2023-02-07T06:06:44.119Z,-11.599999
2023-02-07T06:07:43.786Z,-11.92
2023-02-07T06:08:43.929Z,-11.52
2023-02-07T06:09:44.083Z,-11.2
2023-02-07T06:10:44.238Z,-11.679999
2023-02-07T06:11:44.347Z,-11.84
2023-02-07T06:12:44.508Z,-11.92
2023-02-07T06:13:44.638Z,-11.44
2023-02-07T06:14:44.831Z,-11.92
2023-02-07T06:15:45.004Z,-12.24
2023-02-07T06:16:45.089Z,-11.92
2023-02-07T06:17:45.258Z,-11.599999
2023-02-07T06:18:45.413Z,-12
2023-02-07T06:19:45.553Z,-11.599999
2023-02-07T06:20:45.685Z,-11.28
2023-02-07T06:21:46.883Z,-11.599999
2023-02-07T06:22:45.999Z,-11.599999
2023-02-07T06:23:46.162Z,-12.08
2023-02-07T06:24:46.269Z,-11.92
2023-02-07T06:25:46.404Z,-12.24
2023-02-07T06:26:46.582Z,-12.4
2023-02-07T06:27:46.737Z,-12.719999
2023-02-07T06:28:46.864Z,-12.24
2023-02-07T06:29:47.012Z,-12.32
2023-02-07T06:30:47.261Z,-11.599999
2023-02-07T06:31:47.321Z,-11.44
2023-02-07T06:32:47.487Z,-11.52
2023-02-07T06:33:47.674Z,-11.28
2023-02-07T06:34:47.774Z,-12.32
2023-02-07T06:35:47.912Z,-11.599999
2023-02-07T06:36:48.069Z,-11.28
2023-02-07T06:37:48.185Z,-12.08
2023-02-07T06:38:48.330Z,-12
2023-02-07T06:39:48.482Z,-11.2
2023-02-07T06:40:48.643Z,-11.84
2023-02-07T06:41:48.746Z,-11.52
2023-02-07T06:42:48.884Z,-11.92
2023-02-07T06:43:49.048Z,-12.24
2023-02-07T06:44:49.189Z,-11.84
2023-02-07T06:45:49.327Z,-11.84
2023-02-07T06:46:49.498Z,-12
2023-02-07T06:47:49.591Z,-12
2023-02-07T06:48:49.749Z,-11.599999
2023-02-07T06:49:49.898Z,-11.2
2023-02-07T06:50:50.046Z,-11.44
2023-02-07T06:51:50.163Z,-11.679999
2023-02-07T06:52:50.317Z,-11.52
2023-02-07T06:53:50.435Z,-11.2
2023-02-07T06:54:50.552Z,-11.28
2023-02-07T06:55:50.664Z,-11.679999
2023-02-07T06:56:50.813Z,-11.04
2023-02-07T06:57:50.911Z,-10.4
2023-02-07T06:58:51.026Z,-11.52
2023-02-07T06:59:51.157Z,-12.24
2023-02-07T07:00:51.302Z,-12.32
2023-02-07T07:01:51.547Z,-12.4
2023-02-07T07:02:51.950Z,-12.32
2023-02-07T07:03:52.088Z,-11.679999
2023-02-07T07:04:52.246Z,-11.2
2023-02-07T07:05:52.424Z,-11.44
2023-02-07T07:06:52.594Z,-10.88
2023-02-07T07:07:52.776Z,-10.719999
2023-02-07T07:08:52.924Z,-10.08
2023-02-07T07:09:53.087Z,-10
2023-02-07T07:10:53.366Z,-10
2023-02-07T07:11:53.470Z,-9.84
2023-02-07T07:12:53.626Z,-10.08
2023-02-07T07:13:53.677Z,-10.639999
2023-02-07T07:14:54.022Z,-10.719999
2023-02-07T07:15:53.646Z,-10.4
2023-02-07T07:16:56.527Z,-9.52
2023-02-07T07:17:54.171Z,-8.4
2023-02-07T07:18:53.987Z,-8
2023-02-07T07:19:54.428Z,-7.28
2023-02-07T07:20:54.230Z,-7.12
2023-02-07T07:21:54.382Z,-6.64
2023-02-07T07:22:54.491Z,-6.4
2023-02-07T07:23:54.936Z,-6.72
2023-02-07T07:24:55.093Z,-6.08
2023-02-07T07:25:55.244Z,-6.4
2023-02-07T07:26:55.043Z,-5.84
2023-02-07T07:27:55.574Z,-5.2
2023-02-07T07:28:55.746Z,-5.28
2023-02-07T07:29:56.080Z,-4.8
2023-02-07T07:30:56.046Z,-4.8
2023-02-07T07:31:55.791Z,-4.64
2023-02-07T07:32:55.868Z,-4.8
2023-02-07T07:33:56.021Z,-4.32
2023-02-07T07:34:56.163Z,-4
2023-02-07T07:35:56.323Z,-3.84
2023-02-07T07:36:56.423Z,-3.84
2023-02-07T07:37:56.576Z,-3.84
2023-02-07T07:38:56.730Z,-3.84
2023-02-07T07:39:56.868Z,-3.92
2023-02-07T07:40:57.036Z,-3.84
2023-02-07T07:41:57.191Z,-3.52
2023-02-07T07:42:57.328Z,-3.84
2023-02-07T07:43:57.481Z,-4.4
2023-02-07T07:44:57.563Z,-4.32
2023-02-07T07:45:57.724Z,-4
2023-02-07T07:46:57.937Z,-3.84
2023-02-07T07:47:58.018Z,-4.8
2023-02-07T07:48:58.143Z,-4.48
2023-02-07T07:49:58.285Z,-4.48
2023-02-07T07:50:58.431Z,-4.48
2023-02-07T07:51:58.584Z,-4.72
2023-02-07T07:52:58.747Z,-4.48
2023-02-07T07:53:58.836Z,-4.48
2023-02-07T07:54:58.979Z,-4.48
2023-02-07T07:55:59.129Z,-4.88
2023-02-07T07:56:59.280Z,-5.04
2023-02-07T07:57:59.452Z,-5.04
2023-02-07T07:59:01.598Z,-4.72
2023-02-07T07:59:59.708Z,-4.64
2023-02-07T08:00:59.944Z,-5.44
2023-02-07T08:01:59.937Z,-4.64
2023-02-07T08:03:00.054Z,-4.4
2023-02-07T08:04:01.070Z,-4.32
2023-02-07T08:05:00.835Z,-4.32
2023-02-07T08:06:00.900Z,-4.32
2023-02-07T08:07:00.990Z,-3.92
2023-02-07T08:08:01.141Z,-3.92
2023-02-07T08:09:01.307Z,-4.64
2023-02-07T08:10:01.446Z,-4
2023-02-07T08:11:01.221Z,-4.16
2023-02-07T08:12:01.372Z,-3.92
2023-02-07T08:13:01.477Z,-4.16
2023-02-07T08:14:01.656Z,-3.92
2023-02-07T08:15:01.774Z,-4.4
2023-02-07T08:16:01.932Z,-3.68
2023-02-07T08:17:02.057Z,-3.92
2023-02-07T08:18:02.210Z,-3.84
2023-02-07T08:19:02.370Z,-3.68
2023-02-07T08:20:02.492Z,-3.68
2023-02-07T08:21:02.614Z,-4.16
2023-02-07T08:22:02.759Z,-4.32
2023-02-07T08:23:02.869Z,-4.16
2023-02-07T08:24:02.999Z,-2.48
2023-02-07T08:25:03.132Z,-1.04
2023-02-07T08:26:03.293Z,-1.12
2023-02-07T08:27:03.437Z,-1.12
2023-02-07T08:28:04.551Z,-0.72
2023-02-07T08:29:03.726Z,-0.48
2023-02-07T08:30:03.882Z,0
2023-02-07T08:31:04.004Z,0.72
2023-02-07T08:32:04.154Z,1.04
2023-02-07T08:33:04.278Z,1.44
2023-02-07T08:34:04.379Z,1.6
2023-02-07T08:35:04.484Z,1.68
2023-02-07T08:36:04.643Z,2.4
2023-02-07T08:37:04.782Z,2.32
2023-02-07T08:38:04.963Z,2.64
2023-02-07T08:39:06.627Z,2.64
2023-02-07T08:40:05.239Z,2.8
2023-02-07T08:41:05.409Z,3.6
2023-02-07T08:42:05.553Z,3.44
2023-02-07T08:43:05.652Z,3.84
2023-02-07T08:44:05.797Z,4.08
2023-02-07T08:45:06.001Z,4.64
2023-02-07T08:46:06.197Z,4.16
2023-02-07T08:47:06.217Z,3.92
2023-02-07T08:48:06.304Z,3.68
2023-02-07T08:49:06.469Z,3.68
2023-02-07T08:50:06.624Z,4.16
2023-02-07T08:51:06.778Z,4.16
2023-02-07T08:52:06.924Z,4.64
2023-02-07T08:53:07.076Z,4.4
2023-02-07T08:54:07.187Z,4.16
2023-02-07T08:55:07.336Z,4.48
2023-02-07T08:56:07.473Z,4.16
2023-02-07T08:57:07.633Z,4.72
2023-02-07T08:58:07.785Z,3.92
2023-02-07T08:59:07.933Z,3.44
2023-02-07T09:00:08.101Z,4.48
2023-02-07T09:01:08.274Z,4.48
2023-02-07T09:02:08.402Z,4.8
2023-02-07T09:03:08.487Z,5.92
2023-02-07T09:04:08.640Z,4.16
2023-02-07T09:05:08.795Z,3.92
2023-02-07T09:06:08.931Z,3.92
2023-02-07T09:07:09.094Z,3.52
2023-02-07T09:08:09.242Z,3.84
2023-02-07T09:09:09.363Z,3.92
2023-02-07T09:10:09.533Z,4.4
2023-02-07T09:11:09.768Z,4.08
2023-02-07T09:12:09.842Z,3.44
2023-02-07T09:13:09.955Z,3.04
2023-02-07T09:14:10.104Z,3.92
2023-02-07T09:15:10.252Z,4.8
2023-02-07T09:16:10.347Z,5.2
2023-02-07T09:17:10.493Z,5.04
2023-02-07T09:18:10.656Z,4.08
2023-02-07T09:19:10.812Z,5.12
2023-02-07T09:20:10.992Z,4.32
2023-02-07T09:21:11.119Z,4.64
2023-02-07T09:22:11.295Z,5.84
2023-02-07T09:23:11.421Z,5.28
2023-02-07T09:24:11.570Z,4.88
2023-02-07T09:25:11.722Z,4.4
2023-02-07T09:26:11.872Z,3.28
2023-02-07T09:27:12.036Z,3.92
2023-02-07T09:28:12.246Z,3.68
2023-02-07T09:29:12.329Z,3.6
2023-02-07T09:30:12.483Z,4.64
2023-02-07T09:31:12.655Z,4
2023-02-07T09:32:12.779Z,4.48
2023-02-07T09:33:12.889Z,5.12
2023-02-07T09:34:13.041Z,5.6
2023-02-07T09:35:13.203Z,6.24
2023-02-07T09:36:13.339Z,6.4
2023-02-07T09:37:13.489Z,4.72
2023-02-07T09:38:13.690Z,4.48
2023-02-07T09:39:13.748Z,4.72
2023-02-07T09:40:13.933Z,5.12
2023-02-07T09:41:14.056Z,6.32
2023-02-07T09:42:14.201Z,5.12
2023-02-07T09:43:14.558Z,3.52
2023-02-07T09:44:14.653Z,3.04
2023-02-07T09:45:14.699Z,3.28
2023-02-07T09:46:14.712Z,3.6
2023-02-07T09:47:14.814Z,3.52
2023-02-07T09:48:14.908Z,2.72
2023-02-07T09:49:15.062Z,2.88
2023-02-07T09:50:15.211Z,3.12
2023-02-07T09:51:15.360Z,3.6
2023-02-07T09:52:15.514Z,3.12
2023-02-07T09:53:16.712Z,3.44
2023-02-07T09:54:15.769Z,3.28
2023-02-07T09:55:15.879Z,2.24
2023-02-07T09:56:16.016Z,4.08
2023-02-07T09:57:16.174Z,4.64
2023-02-07T09:58:16.305Z,4.4
2023-02-07T09:59:16.472Z,3.68
2023-02-07T10:00:16.618Z,3.04
2023-02-07T10:01:16.766Z,2.32
2023-02-07T10:02:16.896Z,3.44
2023-02-07T10:03:17.012Z,4.32
2023-02-07T10:04:17.123Z,3.2
2023-02-07T10:05:17.282Z,3.2
2023-02-07T10:06:18.981Z,4.72
2023-02-07T10:07:17.575Z,4.4
2023-02-07T10:08:17.736Z,5.6
2023-02-07T10:09:17.884Z,5.6
2023-02-07T10:10:18.039Z,5.68
2023-02-07T10:11:18.188Z,5.52
2023-02-07T10:12:18.682Z,4
2023-02-07T10:13:18.489Z,3.12
2023-02-07T10:14:18.610Z,4.8
2023-02-07T10:15:18.741Z,5.84
2023-02-07T10:16:18.887Z,6.4
2023-02-07T10:17:29.593Z,6
2023-02-07T10:18:19.144Z,6.32
2023-02-07T10:19:19.304Z,6
2023-02-07T10:20:19.452Z,6.64
2023-02-07T10:21:19.606Z,6.08
2023-02-07T10:22:19.780Z,6.64
2023-02-07T10:23:19.889Z,6.72
2023-02-07T10:24:20.048Z,6.4
2023-02-07T10:25:20.230Z,4.64
2023-02-07T10:26:20.377Z,5.92
2023-02-07T10:27:20.498Z,6
2023-02-07T10:28:20.672Z,5.92
2023-02-07T10:29:20.811Z,5.44
2023-02-07T10:30:21.153Z,5.92
2023-02-07T10:31:21.212Z,6.4
2023-02-07T10:32:21.209Z,5.68
2023-02-07T10:33:21.353Z,5.44
2023-02-07T10:34:21.508Z,5.68
2023-02-07T10:35:21.697Z,5.92
2023-02-07T10:36:21.815Z,5.44
2023-02-07T10:37:21.966Z,4.4
2023-02-07T10:38:22.114Z,4.16
2023-02-07T10:39:22.218Z,3.44
2023-02-07T10:40:22.380Z,5.84
2023-02-07T10:41:22.555Z,6.48
2023-02-07T10:42:22.631Z,5.28
2023-02-07T10:43:22.782Z,6.32
2023-02-07T10:44:22.940Z,4.72
2023-02-07T10:45:23.074Z,5.52
2023-02-07T10:46:23.245Z,6.72
2023-02-07T10:47:23.341Z,6.72
2023-02-07T10:48:23.482Z,3.44
2023-02-07T10:49:25.243Z,2.8
2023-02-07T10:50:29.518Z,4.64
2023-02-07T10:51:23.935Z,4.72
2023-02-07T10:52:24.079Z,4.48
2023-02-07T10:53:24.202Z,4.48
2023-02-07T10:54:24.299Z,5.84
2023-02-07T10:55:24.438Z,6.4
2023-02-07T10:56:24.655Z,6.8
2023-02-07T10:57:24.741Z,6.64
2023-02-07T10:58:24.901Z,6.64
2023-02-07T10:59:25.064Z,6.08
2023-02-07T11:00:25.222Z,6.24
2023-02-07T11:01:25.429Z,6.8
2023-02-07T11:02:25.557Z,6.64
2023-02-07T11:03:25.652Z,6.32
2023-02-07T11:04:25.805Z,4.64
2023-02-07T11:05:25.957Z,5.2
2023-02-07T11:06:26.110Z,7.6
2023-02-07T11:07:26.258Z,7.68
2023-02-07T11:08:26.360Z,6.24
2023-02-07T11:09:26.513Z,6.88
2023-02-07T11:10:26.677Z,8.24
2023-02-07T11:11:26.812Z,7.12
2023-02-07T11:12:26.966Z,6.24
2023-02-07T11:13:28.040Z,5.68
2023-02-07T11:14:27.239Z,5.92
2023-02-07T11:15:27.370Z,5.6
2023-02-07T11:16:27.478Z,5.04
2023-02-07T11:17:27.628Z,5.44
2023-02-07T11:18:27.781Z,6.24
2023-02-07T11:19:27.922Z,6.64
2023-02-07T11:20:28.052Z,7.92
2023-02-07T11:21:28.187Z,7.28
2023-02-07T11:22:28.332Z,7.68
2023-02-07T11:23:28.440Z,8.32
2023-02-07T11:24:28.585Z,9.12
2023-02-07T11:25:28.741Z,8.72
2023-02-07T11:26:28.886Z,8.72
2023-02-07T11:27:29.041Z,7.84
2023-02-07T11:28:29.189Z,7.92
2023-02-07T11:29:29.351Z,8.48
2023-02-07T11:30:29.481Z,8.8
2023-02-07T11:31:29.638Z,7.84
2023-02-07T11:32:29.742Z,8.4
2023-02-07T11:33:29.894Z,7.44
2023-02-07T11:34:30.049Z,7.04
2023-02-07T11:35:30.201Z,7.12
2023-02-07T11:36:30.347Z,6.88
2023-02-07T11:37:30.530Z,9.04
2023-02-07T11:38:30.659Z,8.88
2023-02-07T11:39:30.809Z,8.4
2023-02-07T11:40:31.010Z,8.4
2023-02-07T11:41:31.121Z,7.84
2023-02-07T11:42:31.281Z,8.32
2023-02-07T11:43:31.572Z,8.639999
2023-02-07T11:44:31.727Z,7.04
2023-02-07T11:45:31.861Z,8.08
2023-02-07T11:46:32.022Z,7.84
2023-02-07T11:47:32.138Z,7.12
2023-02-07T11:48:32.273Z,6.88
2023-02-07T11:49:32.429Z,6.48
2023-02-07T11:50:32.517Z,5.68
2023-02-07T11:51:32.685Z,5.92
2023-02-07T11:52:32.828Z,7.28
2023-02-07T11:53:32.978Z,5.04
2023-02-07T11:54:33.133Z,4.64
2023-02-07T11:55:33.273Z,4.4
2023-02-07T11:56:33.379Z,5.52
2023-02-07T11:57:33.551Z,5.52
2023-02-07T11:58:33.685Z,7.2
2023-02-07T11:59:33.793Z,6.88
2023-02-07T12:00:33.937Z,7.12
2023-02-07T12:01:34.049Z,5.12
2023-02-07T12:02:34.191Z,5.2
2023-02-07T12:03:34.348Z,7.04
2023-02-07T12:04:34.572Z,7.28
2023-02-07T12:05:34.654Z,6.72
2023-02-07T12:06:34.803Z,8
2023-02-07T12:07:34.952Z,9.2
2023-02-07T12:08:35.121Z,8.48
2023-02-07T12:09:35.252Z,7.84
2023-02-07T12:10:35.370Z,6.72
2023-02-07T12:11:35.459Z,6.72
2023-02-07T12:12:35.604Z,7.04
2023-02-07T12:13:35.758Z,7.44
2023-02-07T12:14:35.921Z,7.2
2023-02-07T12:15:36.306Z,6.88
2023-02-07T12:16:36.252Z,8.4
2023-02-07T12:17:36.317Z,8.48
2023-02-07T12:18:36.471Z,7.52
2023-02-07T12:19:36.619Z,7.2
2023-02-07T12:20:36.737Z,5.44
2023-02-07T12:21:36.879Z,7.28
2023-02-07T12:22:38.560Z,7.12
2023-02-07T12:23:41.612Z,6.8
2023-02-07T12:24:37.278Z,8
2023-02-07T12:25:37.713Z,7.68
2023-02-07T12:26:37.582Z,6.72
2023-02-07T12:27:37.726Z,7.68
2023-02-07T12:28:37.893Z,7.04
2023-02-07T12:29:38.049Z,8.24
2023-02-07T12:30:38.149Z,9.12
2023-02-07T12:31:38.371Z,8.48
2023-02-07T12:32:38.512Z,5.84
2023-02-07T12:33:38.588Z,6.48
2023-02-07T12:34:38.753Z,5.92
2023-02-07T12:35:41.081Z,5.68
2023-02-07T12:36:39.278Z,6.08
2023-02-07T12:37:39.453Z,4.48
2023-02-07T12:38:39.560Z,4.72
2023-02-07T12:39:39.716Z,4.08
2023-02-07T12:40:39.888Z,3.52
2023-02-07T12:41:40.109Z,3.04
2023-02-07T12:42:40.216Z,3.92
2023-02-07T12:43:40.357Z,3.44
2023-02-07T12:44:40.520Z,2.88
2023-02-07T12:45:40.990Z,2.72
2023-02-07T12:46:40.786Z,2.64
2023-02-07T12:47:40.914Z,1.92
2023-02-07T12:48:41.014Z,1.92
2023-02-07T12:49:41.165Z,1.84